Πλησιέστερες Αναφορές METAR

 

LGTS - Thessaloniki/Makedonia-Elev 7m
Απόσταση από σταθμό: Ν 13km
Ενημερώθηκε: 19/10/2017 09:50
Αίθριος
Αίθριος
 Ανεμοι από μεταβλητός
Ανεμος: μεταβλητός 4 km/h
Θερμοκρασία: 15°C
Σημείο Δρόσου: 5°C
Υγρασία: 51%
Βαρόμετρο: 1019 hPa
Περίληψη: Αίθριος
Ορατότητα: πάνω από 10 km
2017/10/19 06:50 LGTS 190650Z VRB02KT CAVOK 15/05 Q1019 NOSIG
LGAV - Athens/Elef. Venizelos-Elev 94m
Απόσταση από σταθμό: ΝΝΑ 312km
Ενημερώθηκε: 19/10/2017 09:50
Διάσπαρτα Νέφη
Διάσπαρτα Νέφη
 Ανεμοι από άπνοια
Ανεμος: άπνοια
Θερμοκρασία: 19°C
Σημείο Δρόσου: 9°C
Υγρασία: 52%
Βαρόμετρο: 1019 hPa
Νέφωση: Διάσπαρτα Νέφη
Ορατότητα: 10 km
Λεπτομέρειες Νεφών: Διάσπαρτα Νέφη 914 m
2017/10/19 06:50 LGAV 190650Z 00000KT 9999 FEW030 19/09 Q1019 NOSIG
 
LGAL - Alexandroupolis-Elev 3m
Απόσταση από σταθμό: Α 251km
Ενημερώθηκε: 19/10/2017 09:50
Αίθριος
Αίθριος
 Ανεμοι από μεταβλητός
Ανεμος: μεταβλητός 6 km/h
Θερμοκρασία: 15°C
Σημείο Δρόσου: 11°C
Υγρασία: 77%
Βαρόμετρο: 1019 hPa
Περίληψη: Αίθριος
Ορατότητα: πάνω από 10 km
2017/10/19 06:50 LGAL 190650Z VRB03KT CAVOK 15/11 Q1019
LGKV - Kavala/Crysoupolis-Elev 5m
Απόσταση από σταθμό: ΑΒΑ 144km
Ενημερώθηκε: 19/10/2017 09:50
Αίθριος
Αίθριος
 Ανεμοι από άπνοια
Ανεμος: άπνοια
Θερμοκρασία: 15°C
Σημείο Δρόσου: 10°C
Υγρασία: 72%
Βαρόμετρο: 1018 hPa
Περίληψη: Αίθριος
Ορατότητα: πάνω από 10 km
2017/10/19 06:50 LGKV 190650Z 00000KT CAVOK 15/10 Q1018
 
LGSK - Skiathos Island-Elev 15m
Απόσταση από σταθμό: ΝΝΑ 168km
Ενημερώθηκε: 19/10/2017 09:50
Αίθριος
Αίθριος
 Ανεμοι από άπνοια
Ανεμος: άπνοια
Θερμοκρασία: 17°C
Σημείο Δρόσου: 12°C
Υγρασία: 73%
Βαρόμετρο: 1018 hPa
Περίληψη: Αίθριος
Ορατότητα: πάνω από 10 km
2017/10/19 06:50 LGSK 190650Z 00000KT CAVOK 17/12 Q1018
LGLM - Limnos Island-Elev 5m
Απόσταση από σταθμό: ΑΝΑ 210km
Ενημερώθηκε: 19/10/2017 09:50
Αίθριος
Αίθριος
 Ανεμοι από άπνοια
Ανεμος: άπνοια
Θερμοκρασία: 19°C
Σημείο Δρόσου: 16°C
Υγρασία: 83%
Βαρόμετρο: 1018 hPa
Περίληψη: Αίθριος
Ορατότητα: πάνω από 10 km
2017/10/19 06:50 LGLM 190650Z 00000KT CAVOK 19/16 Q1018
 
LGMT - Mitilini Island-Elev 17m
Απόσταση από σταθμό: ΑΝΑ 358km
Ενημερώθηκε: 19/10/2017 09:50
Αίθριος
Αίθριος
 Ανεμοι από άπνοια
Ανεμος: άπνοια
Θερμοκρασία: 19°C
Σημείο Δρόσου: 16°C
Υγρασία: 83%
Βαρόμετρο: 1019 hPa
Περίληψη: Αίθριος
Ορατότητα: πάνω από 10 km
2017/10/19 06:50 LGMT 190650Z 00000KT CAVOK 19/16 Q1019
LGSY - Skiros Island-Elev 15m
Απόσταση από σταθμό: ΝΑ 227km
Ενημερώθηκε: 19/10/2017 09:50
Αίθριος
Αίθριος
 Ανεμοι από ΒΒΔ
Ανεμος: ΒΒΔ 11 km/h
Θερμοκρασία: 20°C
Σημείο Δρόσου: 16°C
Υγρασία: 78%
Βαρόμετρο: 1017 hPa
Περίληψη: Αίθριος
Ορατότητα: πάνω από 10 km
2017/10/19 06:50 LGSY 190650Z 33006KT CAVOK 20/16 Q1017 RMK BKN230 BLU
 
LGKZ - Kozani-Elev 628m
Απόσταση από σταθμό: ΔΝΔ 102km
Ενημερώθηκε: 19/10/2017 09:50
Αίθριος
Αίθριος
 Ανεμοι από άπνοια
Ανεμος: άπνοια
Θερμοκρασία: 16°C
Σημείο Δρόσου: 7°C
Υγρασία: 55%
Βαρόμετρο: 1021 hPa
Περίληψη: Αίθριος
Ορατότητα: πάνω από 10 km
2017/10/19 06:50 LGKZ 190650Z 00000KT CAVOK 16/07 Q1021
LGIO - Ioannina-Elev 476m
Απόσταση από σταθμό: ΔΝΔ 209km
Ενημερώθηκε: 19/10/2017 09:50
Αίθριος
Αίθριος
 Ανεμοι από μεταβλητός
Ανεμος: μεταβλητός 0 km/h
Θερμοκρασία: 13°C
Σημείο Δρόσου: 9°C
Υγρασία: 77%
Βαρόμετρο: 1020 hPa
Περίληψη: Αίθριος
Ορατότητα: πάνω από 10 km
2017/10/19 06:50 LGIO 190650Z /////KT CAVOK 13/09 Q1020
 
LGZA - Zakinthos-Elev 3m
Απόσταση από σταθμό: ΝΝΔ 367km
Ενημερώθηκε: 19/10/2017 09:50
Διάσπαρτα Νέφη
Διάσπαρτα Νέφη
 Ανεμοι από άπνοια
Ανεμος: άπνοια
Θερμοκρασία: 18°C
Σημείο Δρόσου: 17°C
Υγρασία: 94%
Βαρόμετρο: 1019 hPa
Νέφωση: Διάσπαρτα Νέφη
Ορατότητα: 10 km
Λεπτομέρειες Νεφών: Διάσπαρτα Νέφη 457 m
2017/10/19 06:50 LGZA 190650Z 00000KT 9999 FEW015 18/17 Q1019
LGKR - Corfu Island-Elev 2m
Απόσταση από σταθμό: ΔΝΔ 282km
Ενημερώθηκε: 19/10/2017 09:50
Μερικώς νεφελώδης
Μερικώς νεφελώδης
 Ανεμοι από άπνοια
Ανεμος: άπνοια
Θερμοκρασία: 16°C
Σημείο Δρόσου: 15°C
Υγρασία: 94%
Βαρόμετρο: 1019 hPa
Νέφωση: Μερικώς νεφελώδης
Ορατότητα: 10 km
Λεπτομέρειες Νεφών: Διάσπαρτα Νέφη 366 m
Μερικώς νεφελώδης 914 m
2017/10/19 06:50 LGKR 190650Z 00000KT 9999 FEW012 SCT030 16/15 Q1019 NOSIG
 
LGSO - Syros Island-Elev 72m
Απόσταση από σταθμό: ΝΝΑ 397km
Ενημερώθηκε: 19/10/2017 09:50
Αίθριος
Αίθριος
 Ανεμοι από άπνοια
Ανεμος: άπνοια
Θερμοκρασία: 19°C
Σημείο Δρόσου: 16°C
Υγρασία: 83%
Βαρόμετρο: 1019 hPa
Περίληψη: Αίθριος
Ορατότητα: πάνω από 10 km
2017/10/19 06:50 LGSO 190650Z 00000KT CAVOK 19/16 Q1019
LGMK - Mikonos Island-Elev 123m
Απόσταση από σταθμό: ΝΝΑ 412km
Ενημερώθηκε: 19/10/2017 09:50
Αίθριος
Αίθριος
 Ανεμοι από άπνοια
Ανεμος: άπνοια
Θερμοκρασία: 18°C
Σημείο Δρόσου: 15°C
Υγρασία: 83%
Βαρόμετρο: 1018 hPa
Περίληψη: Αίθριος
Ορατότητα: πάνω από 10 km
2017/10/19 06:50 LGMK 190650Z 00000KT CAVOK 18/15 Q1018
 
LGSR - Santorini Island-Elev 40m
Απόσταση από σταθμό: ΝΝΑ 520km
Ενημερώθηκε: 19/10/2017 09:50
Αίθριος
Αίθριος
 Ανεμοι από Β
Ανεμος: Β 9 km/h
Θερμοκρασία: 21°C
Σημείο Δρόσου: 16°C
Υγρασία: 73%
Βαρόμετρο: 1018 hPa
Περίληψη: Αίθριος
Ορατότητα: πάνω από 10 km
2017/10/19 06:50 LGSR 190650Z 36005KT CAVOK 21/16 Q1018
LGKL - Kalamata-Elev 8m
Απόσταση από σταθμό: Ν 405km
Ενημερώθηκε: 19/10/2017 09:50
Αχλύς, Διάσπαρτα νέφη
Αχλύς, Διάσπαρτα νέφη
 Ανεμοι από ΒΔ
Ανεμος: ΒΔ 7 km/h
Θερμοκρασία: 18°C
Σημείο Δρόσου: 14°C
Υγρασία: 78%
Βαρόμετρο: 1019 hPa
Περίληψη: Αχλύς
Νέφωση: Διάσπαρτα Νέφη
Ορατότητα: 8 km
Λεπτομέρειες Νεφών: Διάσπαρτα Νέφη 914 m
2017/10/19 06:50 LGKL 190650Z 32004KT 8000 3500SE BR FEW030 18/14 Q1019
 
LGIR - Iraklion/Crete-Elev 5m
Απόσταση από σταθμό: ΝΝΑ 622km
Ενημερώθηκε: 19/10/2017 09:50
Διάσπαρτα Νέφη
Διάσπαρτα Νέφη
 Ανεμοι από άπνοια
Ανεμος: άπνοια
Θερμοκρασία: 20°C
Σημείο Δρόσου: 16°C
Υγρασία: 78%
Βαρόμετρο: 1018 hPa
Νέφωση: Διάσπαρτα Νέφη
Ορατότητα: 10 km
Λεπτομέρειες Νεφών: Διάσπαρτα Νέφη 762 m
2017/10/19 06:50 LGIR 190650Z 00000KT 9999 FEW025 20/16 Q1018 NOSIG
LGRP - Rhodes-Elev 5m
Απόσταση από σταθμό: ΝΑ 649km
Ενημερώθηκε: 19/10/2017 09:50
Διάσπαρτα Νέφη
Διάσπαρτα Νέφη
 Ανεμοι από ΝΔ
Ανεμος: ΝΔ 9 km/h
Θερμοκρασία: 21°C
Σημείο Δρόσου: 18°C
Υγρασία: 83%
Βαρόμετρο: 1017 hPa
Νέφωση: Διάσπαρτα Νέφη
Ορατότητα: 10 km
Λεπτομέρειες Νεφών: Διάσπαρτα Νέφη 549 m
2017/10/19 06:50 LGRP 190650Z 23005KT 9999 FEW018 21/18 Q1017 NOSIG
 
LWOH - Ohrid/FYROM-Elev 761m
Απόσταση από σταθμό: ΔΒΔ 188km
Ενημερώθηκε: 19/10/2017 10:00
Αίθριος
Αίθριος
 Ανεμοι από μεταβλητός
Ανεμος: μεταβλητός 2 km/h
Θερμοκρασία: 13°C
Σημείο Δρόσου: 7°C
Υγρασία: 67%
Βαρόμετρο: 1022 hPa
Περίληψη: Αίθριος
Ορατότητα: πάνω από 10 km
2017/10/19 07:00 LWOH 190700Z VRB01KT CAVOK 13/07 Q1022
LBSF - Sofia/Bulgaria-Elev 595m
Απόσταση από σταθμό: Β 227km
Ενημερώθηκε: 19/10/2017 09:30
Αίθριος
Αίθριος
 Ανεμοι από ΑΝΑ
Ανεμος: ΑΝΑ 6 km/h
Θερμοκρασία: 9°C
Σημείο Δρόσου: 9°C
Υγρασία: 100%
Βαρόμετρο: 1021 hPa
Περίληψη: Αίθριος
Ορατότητα: πάνω από 10 km
2017/10/19 06:30 LBSF 190630Z 12003KT 090V150 CAVOK 09/09 Q1021 NOSIG